• Join FlightAware (Why Join?)
  • Login
  • US Flag 
06:59PM EDT


 

Airport Tracker/Info


-or-


 

Live Flight TrackerFlight Track Log ✈ N762NC ✈ 14-Aug-2013 ✈ KDTW - KORD

Flight Track Log - Related Links

Times and Time Zones

All times are in EDT time to prevent confusion due to time zone crossing. See the N762NC flight status page for this flight to view local times or setup timezone preferences in your user account.

Time Position Orientation Groundspeed Altitude Reporting Facility
EDT Latitude Longitude Course Direction KTS MPH feet Rate Location/Type
07:55PM 42.2097 -83.3669 292° West 145 167 1,400  Level Cleveland Center
07:56PM 42.1925 -83.3886 223° Southwest 213 245 1,900 2,400 Climbing Cleveland Center
07:57PM 42.1453 -83.4481 223° Southwest 218 251 5,100 2,580 Climbing Cleveland Center
07:58PM 42.1547 -83.5606 276° West 254 292 8,400 2,280 Climbing Cleveland Center
07:59PM 42.3315 -83.8661 292° West  Level FlightAware Approximate
07:59PM 42.1939 -83.6633 297° West 265 305 10,800  Level Cleveland Center
08:00PM 42.3696 -83.9930 292° West  Level FlightAware Approximate
08:00PM 42.2325 -83.7775 295° West 297 342 12,200  Level Cleveland Center
08:01PM 42.4077 -84.1199 292° West  Level FlightAware Approximate
08:01PM 42.2750 -83.8919 297° West 328 377 14,500  Level Cleveland Center
08:02PM 42.3214 -84.0206 296° West 355 409 16,700 1,920 Climbing Cleveland Center
08:03PM 42.3736 -84.1500 299° West 382 440 18,400 1,740 Climbing Cleveland Center
08:04PM 42.4278 -84.2825 299° West 394 453 20,200 1,680 Climbing Cleveland Center
08:05PM 42.4414 -84.4381 277° West 399 459 21,900 1,380 Climbing Cleveland Center
08:06PM 42.4469 -84.4889 278° West 429 494 22,300 1,680 Climbing Chicago Center
08:07PM 42.4367 -84.6839 266° West 438 504 24,500 1,440 Climbing Chicago Center
08:08PM 42.4272 -84.8506 266° West 444 511 25,300 1,020 Climbing Chicago Center
08:09PM 42.4183 -85.0200 266° West 452 520 26,700 1,140 Climbing Chicago Center
08:10PM 42.4275 -85.1917 274° West 460 529 27,700 540 Climbing Chicago Center
08:11PM 42.4358 -85.3611 274° West 454 522 27,900 -240 Climbing Chicago Center
08:12PM 42.4464 -85.5297 275° West 450 518 27,300 -660 Descending Chicago Center
08:13PM 42.4586 -85.7278 275° West 442 509 26,600 -720 Descending Chicago Center
08:14PM 42.4689 -85.8928 275° West 438 504 25,900 -720 Descending Chicago Center
08:15PM 42.4686 -86.0597 270° West 441 507 25,200 -720 Descending Chicago Center
08:16PM 42.4692 -86.2269 270° West 443 510 24,500 -1,560 Descending Chicago Center
08:17PM 42.4708 -86.3911 271° West 438 504 22,000 -3,180 Descending Chicago Center
08:18PM 42.4764 -86.5489 273° West 421 484 18,000 -3,660 Descending Chicago Center
08:19PM 42.4833 -86.7000 274° West 405 466 14,500 -3,540 Descending Chicago Center
08:20PM 42.4894 -86.8728 273° West 385 443 10,700 -2,220 Descending Chicago Center
08:21PM 42.4908 -87.0111 271° West 372 428 10,000 -360 Descending Chicago Center
08:22PM 42.4603 -87.1389 252° West 358 412 10,000 -300 Level Chicago Center
08:23PM 42.4319 -87.2436 250° West 304 350 9,400 -540 Descending Chicago Center
08:24PM 42.4014 -87.3400 247° West 284 327 9,000 -780 Descending Chicago Center
08:25PM 42.3706 -87.4444 248° West 281 323 7,800 -1,380 Descending Chicago Center
08:26PM 42.3236 -87.5342 235° Southwest 282 325 6,200 -1,380 Descending Chicago Center
08:27PM 42.2594 -87.6047 219° Southwest 272 313 5,000 -600 Descending Chicago Center
08:29PM 42.2058 -87.6661 220° Southwest 256 295 5,000 -60 Level Chicago Center
08:30PM 42.1581 -87.7189 219° Southwest 228 262 4,900 -720 Descending Chicago Center
08:30PM 42.1167 -87.7667 221° Southwest 223 257 3,800 -1,260 Descending Chicago TRACON
08:31PM 42.0833 -87.8167 228° Southwest 187 215 2,700 -1,080 Descending Chicago TRACON
08:32PM 42.0333 -87.8500 206° Southwest 159 183 1,700 -900 Descending Chicago TRACON
08:33PM 42.0167 -87.8833 236° Southwest 135 155 1,000 -720 Descending Chicago TRACON